Time;durP1;ratioP1;P1;durP2;ratioP2;P2;SDS_P1;SDS_P2;PMS_P1;PMS_P2;Temp;Humidity;BMP_temperature;BMP_pressure;BME280_temperature;BME280_humidity;BME280_pressure;Samples;Min_cycle;Max_cycle;Signal;HPM_P1;HPM_P2
2023/02/07 00:04:16;;;;;;;24.65;11.07;;;-1.80;99.90;;;;;;15124576;23;20113;-36
2023/02/07 00:10:18;;;;;;;20.75;11.52;;;-1.90;99.90;;;;;;15125810;23;20435;-36
2023/02/07 00:16:21;;;;;;;20.00;11.43;;;-1.70;99.90;;;;;;15120526;23;20471;-36
2023/02/07 00:22:23;;;;;;;21.40;10.65;;;-1.90;99.90;;;;;;15127564;23;20124;-36
2023/02/07 00:28:25;;;;;;;21.65;11.63;;;-1.80;99.90;;;;;;15130333;23;20381;-36
2023/02/07 00:34:27;;;;;;;22.42;12.63;;;-2.00;99.90;;;;;;15127335;23;20464;-36
2023/02/07 00:40:29;;;;;;;21.63;11.68;;;-1.70;99.90;;;;;;15126955;23;20476;-36
2023/02/07 00:46:31;;;;;;;19.40;12.00;;;-1.60;99.90;;;;;;15130192;23;20048;-36
2023/02/07 00:52:33;;;;;;;22.23;11.70;;;-1.60;99.90;;;;;;15130520;23;20022;-36
2023/02/07 00:58:35;;;;;;;27.27;12.02;;;-1.60;99.90;;;;;;15123580;23;20456;-36
2023/02/07 01:04:37;;;;;;;25.13;11.88;;;-1.60;99.90;;;;;;15125730;23;20030;-36
2023/02/07 01:10:41;;;;;;;24.92;11.40;;;-1.80;99.90;;;;;;15128799;23;20023;-37
2023/02/07 01:16:43;;;;;;;18.73;10.73;;;-1.80;99.90;;;;;;15123431;23;20122;-36
2023/02/07 01:22:45;;;;;;;23.15;11.18;;;-1.70;99.90;;;;;;15128675;23;20182;-36
2023/02/07 01:28:47;;;;;;;24.40;10.90;;;-1.70;99.90;;;;;;15122659;23;20101;-37
2023/02/07 01:34:48;;;;;;;16.77;9.90;;;-1.70;99.90;;;;;;15126786;23;20022;-36
2023/02/07 01:40:50;;;;;;;18.38;10.25;;;-1.70;99.90;;;;;;15125645;23;20408;-36
2023/02/07 01:46:53;;;;;;;19.25;9.55;;;-1.80;99.90;;;;;;15123431;23;20050;-36
2023/02/07 01:52:59;;;;;;;16.30;9.25;;;-1.80;99.90;;;;;;15127121;23;20026;-36
2023/02/07 01:59:04;;;;;;;15.27;8.70;;;-1.80;99.90;;;;;;15096980;23;20101;-36
2023/02/07 02:05:08;;;;;;;16.77;8.70;;;-1.80;99.90;;;;;;15123932;23;20494;-35
2023/02/07 02:11:41;;;;;;;13.75;7.78;;;-1.90;99.90;;;;;;15124917;23;20018;-36
2023/02/07 02:18:08;;;;;;;13.48;6.88;;;-1.80;99.90;;;;;;15130578;23;20033;-35
2023/02/07 02:24:28;;;;;;;12.63;7.30;;;-1.80;99.90;;;;;;15122983;23;20122;-36
2023/02/07 02:31:03;;;;;;;11.80;6.80;;;-1.80;99.90;;;;;;15122790;23;20097;-36
2023/02/07 02:37:30;;;;;;;17.50;8.52;;;-1.70;99.90;;;;;;15127476;23;20018;-36
2023/02/07 02:43:49;;;;;;;13.32;6.75;;;-1.80;99.90;;;;;;15106986;23;20097;-36
2023/02/07 02:49:51;;;;;;;13.85;7.35;;;-2.00;99.90;;;;;;15120718;23;20101;-36
2023/02/07 02:56:15;;;;;;;10.32;6.65;;;-2.20;99.90;;;;;;15121500;23;20447;-35
2023/02/07 03:02:22;;;;;;;15.23;7.40;;;-2.20;99.90;;;;;;15123140;23;20054;-36
2023/02/07 03:08:40;;;;;;;10.63;6.07;;;-2.30;99.90;;;;;;15102623;23;20534;-36
2023/02/07 03:14:53;;;;;;;10.43;5.88;;;-2.30;99.90;;;;;;15121663;23;20428;-36
2023/02/07 03:21:04;;;;;;;10.85;6.00;;;-2.00;99.90;;;;;;15125585;23;20134;-36
2023/02/07 03:27:09;;;;;;;11.95;6.60;;;-2.00;99.90;;;;;;15123340;23;20093;-36
2023/02/07 03:33:12;;;;;;;11.32;6.10;;;-2.00;99.90;;;;;;15125730;23;20030;-36
2023/02/07 03:39:14;;;;;;;12.45;7.68;;;-2.10;99.90;;;;;;15126102;23;20022;-36
2023/02/07 03:45:19;;;;;;;15.73;7.40;;;-2.30;99.90;;;;;;15120668;23;20109;-36
2023/02/07 03:51:21;;;;;;;12.50;6.13;;;-2.40;99.90;;;;;;15124026;23;20022;-36
2023/02/07 03:57:22;;;;;;;11.07;6.20;;;-2.40;99.90;;;;;;15126951;23;20101;-36
2023/02/07 04:03:24;;;;;;;10.35;5.60;;;-2.40;99.90;;;;;;15128079;23;20382;-36
2023/02/07 04:09:26;;;;;;;12.45;6.38;;;-2.60;99.90;;;;;;15129564;23;20025;-35
2023/02/07 04:15:28;;;;;;;13.15;6.32;;;-2.60;99.90;;;;;;15126938;23;20032;-35
2023/02/07 04:21:30;;;;;;;11.60;6.90;;;-2.60;99.90;;;;;;15130200;23;20448;-36
2023/02/07 04:27:32;;;;;;;11.98;6.85;;;-2.60;99.90;;;;;;15125489;23;20026;-36
2023/02/07 04:33:34;;;;;;;14.13;7.00;;;-2.70;99.90;;;;;;15130526;23;20022;-36
2023/02/07 04:39:35;;;;;;;12.50;7.15;;;-2.70;99.90;;;;;;15124923;23;20100;-36
2023/02/07 04:45:37;;;;;;;13.68;7.65;;;-2.70;99.90;;;;;;15128362;23;20061;-36
2023/02/07 04:51:40;;;;;;;12.73;7.53;;;-2.70;99.90;;;;;;15125127;23;20093;-36
2023/02/07 04:57:41;;;;;;;15.20;7.78;;;-2.70;99.90;;;;;;15130788;23;20145;-36
2023/02/07 05:03:43;;;;;;;12.43;7.15;;;-2.70;99.90;;;;;;15130270;23;20118;-37
2023/02/07 05:09:45;;;;;;;13.68;7.55;;;-2.80;99.90;;;;;;15125571;23;20022;-36
2023/02/07 05:15:47;;;;;;;17.17;8.35;;;-2.60;99.90;;;;;;15097775;23;20098;-36
2023/02/07 05:21:49;;;;;;;15.45;8.00;;;-2.60;99.90;;;;;;15098322;23;20466;-36
2023/02/07 05:27:51;;;;;;;16.25;9.05;;;-2.60;99.90;;;;;;15120819;23;20023;-36
2023/02/07 05:33:52;;;;;;;16.73;7.65;;;-2.70;99.90;;;;;;15122119;23;20106;-36
2023/02/07 05:39:54;;;;;;;11.30;6.82;;;-2.60;99.90;;;;;;15128878;23;20069;-36
2023/02/07 05:45:56;;;;;;;13.50;7.93;;;-2.60;99.90;;;;;;15128854;23;20097;-36
2023/02/07 05:51:58;;;;;;;12.98;7.57;;;-2.60;99.90;;;;;;15067894;23;20022;-36
2023/02/07 05:58:00;;;;;;;14.43;7.68;;;-2.70;99.90;;;;;;15128860;23;20101;-36
2023/02/07 06:04:01;;;;;;;15.55;7.82;;;-2.90;99.90;;;;;;15125971;23;20464;-35
2023/02/07 06:10:05;;;;;;;13.95;7.97;;;-2.90;99.90;;;;;;15128305;23;20022;-36
2023/02/07 06:16:09;;;;;;;11.30;7.30;;;-3.00;99.90;;;;;;15095864;23;20384;-36
2023/02/07 06:22:11;;;;;;;14.97;8.10;;;-3.10;99.90;;;;;;15123551;23;20498;-37
2023/02/07 06:28:13;;;;;;;16.02;7.93;;;-3.10;99.90;;;;;;15094354;23;21320;-36
2023/02/07 06:34:15;;;;;;;14.10;8.00;;;-3.10;99.90;;;;;;15117794;23;20037;-36
2023/02/07 06:40:17;;;;;;;17.75;8.73;;;-3.00;99.90;;;;;;15122139;23;20141;-36
2023/02/07 06:46:19;;;;;;;12.90;7.65;;;-3.00;99.90;;;;;;15121462;23;20317;-36
2023/02/07 06:52:21;;;;;;;14.15;7.88;;;-3.00;99.90;;;;;;15123544;23;20030;-36
2023/02/07 06:58:23;;;;;;;12.80;7.55;;;-3.10;99.90;;;;;;15129038;23;20025;-36
2023/02/07 07:04:25;;;;;;;14.52;8.18;;;-3.00;99.90;;;;;;15121222;23;20022;-36
2023/02/07 07:10:27;;;;;;;13.80;8.18;;;-2.90;99.90;;;;;;15124050;23;20023;-36
2023/02/07 07:16:30;;;;;;;14.18;8.55;;;-2.80;99.90;;;;;;15095537;23;20476;-36
2023/02/07 07:22:32;;;;;;;15.43;8.45;;;-2.90;99.90;;;;;;15121926;23;20601;-36
2023/02/07 07:28:34;;;;;;;17.77;9.15;;;-2.80;99.90;;;;;;15125906;23;20105;-36
2023/02/07 07:34:35;;;;;;;13.60;8.52;;;-2.60;99.90;;;;;;15121641;23;20052;-36
2023/02/07 07:40:37;;;;;;;13.77;8.90;;;-2.60;99.90;;;;;;15128305;23;20045;-36
2023/02/07 07:46:39;;;;;;;15.07;8.32;;;-2.50;99.90;;;;;;15126014;23;20030;-37
2023/02/07 07:52:41;;;;;;;10.70;6.80;;;-2.40;99.90;;;;;;15124312;23;20034;-36
2023/02/07 07:58:43;;;;;;;13.85;8.90;;;-2.30;99.90;;;;;;15126556;23;20429;-36
2023/02/07 08:04:45;;;;;;;19.00;10.32;;;-2.00;99.90;;;;;;15125475;23;20110;-36
2023/02/07 08:10:48;;;;;;;17.75;10.98;;;-1.90;99.90;;;;;;15103177;23;20061;-37
2023/02/07 08:16:49;;;;;;;15.27;9.70;;;-1.70;99.90;;;;;;15121572;23;20101;-36
2023/02/07 08:22:52;;;;;;;17.33;9.70;;;-1.50;99.90;;;;;;15105532;23;20026;-36
2023/02/07 08:28:54;;;;;;;14.45;8.77;;;-1.30;99.90;;;;;;15128792;23;20097;-37
2023/02/07 08:34:55;;;;;;;18.25;11.07;;;-1.00;99.90;;;;;;15126529;23;20105;-37
2023/02/07 08:40:57;;;;;;;15.35;10.25;;;-0.80;99.90;;;;;;15129965;23;20150;-37
2023/02/07 08:46:59;;;;;;;18.42;12.60;;;-0.60;99.90;;;;;;15102847;23;20094;-36
2023/02/07 08:53:01;;;;;;;21.90;11.90;;;-0.60;99.90;;;;;;15128846;23;20022;-36
2023/02/07 08:59:03;;;;;;;16.35;10.10;;;-0.50;99.90;;;;;;15129756;23;20594;-36
2023/02/07 09:05:06;;;;;;;20.23;11.27;;;-0.30;99.90;;;;;;15126616;23;20046;-36
2023/02/07 09:11:08;;;;;;;14.07;9.48;;;-0.30;99.90;;;;;;15129915;23;20022;-36
2023/02/07 09:17:10;;;;;;;17.92;10.52;;;-0.20;99.90;;;;;;15128958;23;20033;-36
2023/02/07 09:23:18;;;;;;;16.67;9.20;;;-0.10;99.90;;;;;;15103056;23;20030;-37
2023/02/07 09:29:20;;;;;;;15.57;9.20;;;-0.20;99.90;;;;;;15126986;23;20023;-37
2023/02/07 09:35:22;;;;;;;17.05;10.32;;;-0.20;99.90;;;;;;15125959;23;20479;-36
2023/02/07 09:41:51;;;;;;;15.00;9.63;;;0.00;99.90;;;;;;15104230;23;20030;-37
2023/02/07 09:48:00;;;;;;;17.10;9.45;;;0.20;99.90;;;;;;15124212;23;20019;-36
2023/02/07 09:54:14;;;;;;;15.90;9.52;;;0.20;99.90;;;;;;15123366;23;20134;-36
2023/02/07 10:00:27;;;;;;;15.73;9.52;;;0.40;99.90;;;;;;15102326;23;20058;-37
2023/02/07 10:06:29;;;;;;;17.50;10.65;;;0.40;99.90;;;;;;15127004;23;20138;-37
2023/02/07 10:12:56;;;;;;;15.80;10.02;;;0.50;99.90;;;;;;15100869;23;20026;-36
2023/02/07 10:19:10;;;;;;;15.60;9.48;;;0.90;99.90;;;;;;15123510;23;20137;-37
2023/02/07 10:25:32;;;;;;;15.57;9.15;;;1.00;99.90;;;;;;15120656;23;20057;-36
2023/02/07 10:31:38;;;;;;;16.35;9.68;;;1.10;99.90;;;;;;15125112;23;20023;-36
2023/02/07 10:37:43;;;;;;;14.00;9.63;;;1.80;99.90;;;;;;15122215;23;20024;-36
2023/02/07 10:43:46;;;;;;;13.35;8.95;;;2.10;99.90;;;;;;15123399;23;20106;-36
2023/02/07 10:49:51;;;;;;;10.07;7.13;;;2.20;99.90;;;;;;15124931;23;20432;-36
2023/02/07 10:55:54;;;;;;;12.10;7.85;;;1.90;99.90;;;;;;15125022;23;20045;-36
2023/02/07 11:01:56;;;;;;;11.82;7.35;;;1.90;99.90;;;;;;15125025;23;20457;-36
2023/02/07 11:08:02;;;;;;;10.52;7.18;;;2.10;99.90;;;;;;15128739;23;20053;-36
2023/02/07 11:14:07;;;;;;;10.18;6.40;;;2.60;99.90;;;;;;15123295;23;20038;-37
2023/02/07 11:20:24;;;;;;;9.18;6.65;;;2.70;99.90;;;;;;15099405;23;20037;-36
2023/02/07 11:26:28;;;;;;;9.98;6.90;;;2.70;99.90;;;;;;15124885;23;20062;-36
2023/02/07 11:32:30;;;;;;;10.63;6.72;;;3.00;99.90;;;;;;15099743;23;20026;-37
2023/02/07 11:38:45;;;;;;;10.18;6.60;;;3.00;99.90;;;;;;15125952;23;20355;-36
2023/02/07 11:44:48;;;;;;;9.55;6.18;;;3.30;99.90;;;;;;15122276;23;20154;-36
2023/02/07 11:50:59;;;;;;;8.30;5.75;;;3.50;99.90;;;;;;15120794;23;20029;-36
2023/02/07 11:57:10;;;;;;;7.65;5.45;;;3.30;99.90;;;;;;15124071;23;20062;-36
2023/02/07 12:03:26;;;;;;;9.52;5.32;;;3.60;99.90;;;;;;15102441;23;20030;-37
2023/02/07 12:09:39;;;;;;;7.75;5.25;;;3.90;99.90;;;;;;15125751;23;20026;-36
2023/02/07 12:15:49;;;;;;;8.10;5.22;;;4.00;99.90;;;;;;15125561;23;20037;-37
2023/02/07 12:22:03;;;;;;;7.70;5.10;;;3.90;99.90;;;;;;15127600;23;20037;-37
2023/02/07 12:28:30;;;;;;;11.10;6.00;;;4.10;99.90;;;;;;15124810;23;20033;-37
2023/02/07 12:35:05;;;;;;;8.85;5.78;;;4.10;99.90;;;;;;15125455;23;20722;-37
2023/02/07 12:41:27;;;;;;;7.38;5.03;;;4.40;99.90;;;;;;15130502;23;20103;-36
2023/02/07 12:47:58;;;;;;;9.65;5.38;;;4.40;99.90;;;;;;15125327;23;20027;-37
2023/02/07 12:54:24;;;;;;;7.88;5.10;;;4.10;99.90;;;;;;15125028;23;20034;-36
2023/02/07 13:00:49;;;;;;;6.88;5.03;;;4.00;99.90;;;;;;15126560;23;20101;-37
2023/02/07 13:07:11;;;;;;;6.47;4.63;;;4.10;99.90;;;;;;15126545;23;20023;-37
2023/02/07 13:13:34;;;;;;;6.50;3.92;;;4.50;99.90;;;;;;15123731;23;20049;-37
2023/02/07 13:19:55;;;;;;;5.53;3.10;;;4.00;99.90;;;;;;15125431;23;20029;-37
2023/02/07 13:26:32;;;;;;;5.25;3.47;;;4.20;99.90;;;;;;15122940;23;20026;-37
2023/02/07 13:32:34;;;;;;;5.25;3.20;;;4.00;99.90;;;;;;15061147;23;20018;-37
2023/02/07 13:38:42;;;;;;;4.70;2.80;;;3.90;99.90;;;;;;15127555;23;20023;-37
2023/02/07 13:44:53;;;;;;;5.75;3.38;;;3.90;99.90;;;;;;15119409;23;20078;-37
2023/02/07 13:51:10;;;;;;;5.60;3.30;;;3.90;99.90;;;;;;15124380;23;20037;-37
2023/02/07 14:04:11;;;;;;;4.60;2.72;;;3.80;99.90;;;;;;15124016;23;20030;-37
2023/02/07 14:10:33;;;;;;;4.18;2.30;;;3.80;99.90;;;;;;15123372;23;20026;-37
2023/02/07 14:16:45;;;;;;;4.82;2.88;;;3.80;99.90;;;;;;15100698;23;20022;-37
2023/02/07 14:22:50;;;;;;;5.25;3.35;;;3.70;99.90;;;;;;15128209;23;20077;-36
2023/02/07 14:29:18;;;;;;;6.88;3.72;;;3.70;99.90;;;;;;15122873;23;20503;-36
2023/02/07 14:35:30;;;;;;;6.82;3.58;;;3.60;99.90;;;;;;15126749;23;20464;-36
2023/02/07 14:41:36;;;;;;;8.02;3.60;;;3.60;99.90;;;;;;15125922;23;20414;-36
2023/02/07 14:47:38;;;;;;;7.03;4.07;;;3.50;99.90;;;;;;15123945;23;20018;-37
2023/02/07 14:53:43;;;;;;;7.30;4.30;;;3.50;99.90;;;;;;15123786;23;20029;-36
2023/02/07 14:59:59;;;;;;;6.78;4.10;;;3.40;99.90;;;;;;15128853;23;20019;-36
2023/02/07 15:06:03;;;;;;;5.45;3.70;;;3.40;99.90;;;;;;15123875;23;20104;-37
2023/02/07 15:12:08;;;;;;;5.90;4.03;;;3.40;99.90;;;;;;15126643;23;20392;-37
2023/02/07 15:18:32;;;;;;;6.10;3.85;;;3.40;99.90;;;;;;15122743;23;20029;-37
2023/02/07 15:24:42;;;;;;;7.18;3.53;;;3.20;99.90;;;;;;15108785;23;20108;-37
2023/02/07 15:31:26;;;;;;;7.18;4.22;;;3.10;99.90;;;;;;15124100;23;20167;-36
2023/02/07 15:37:28;;;;;;;7.37;4.67;;;3.10;99.90;;;;;;15117111;23;20447;-36
2023/02/07 15:43:34;;;;;;;7.22;4.47;;;2.90;99.90;;;;;;15124010;23;20435;-36
2023/02/07 15:49:39;;;;;;;8.77;4.82;;;2.90;99.90;;;;;;15100285;23;20046;-37
2023/02/07 15:55:47;;;;;;;9.82;5.07;;;2.80;99.90;;;;;;15132802;23;20071;-36
2023/02/07 16:01:54;;;;;;;8.18;5.15;;;2.60;99.90;;;;;;15124267;23;20027;-37
2023/02/07 16:08:04;;;;;;;12.20;7.13;;;2.50;99.90;;;;;;15130519;23;20351;-37
2023/02/07 16:14:24;;;;;;;11.63;6.97;;;2.20;99.90;;;;;;15130540;23;20026;-36
2023/02/07 16:20:28;;;;;;;12.23;7.07;;;2.00;99.90;;;;;;15127991;23;20029;-36
2023/02/07 16:26:29;;;;;;;14.35;6.30;;;1.80;99.90;;;;;;15123291;23;20163;-36
2023/02/07 16:32:32;;;;;;;10.23;6.05;;;1.50;99.90;;;;;;15101744;23;20026;-36
2023/02/07 16:38:34;;;;;;;12.40;7.20;;;1.30;99.90;;;;;;15126709;23;20437;-36
2023/02/07 16:44:36;;;;;;;12.88;7.60;;;1.20;99.90;;;;;;15125009;23;20430;-36
2023/02/07 16:50:38;;;;;;;10.73;5.95;;;1.00;99.90;;;;;;15122869;23;20030;-36
2023/02/07 16:56:43;;;;;;;11.60;6.72;;;0.70;99.90;;;;;;15127274;23;20407;-36
2023/02/07 17:02:47;;;;;;;15.60;8.10;;;0.50;99.90;;;;;;15097030;23;20032;-36
2023/02/07 17:08:50;;;;;;;19.33;10.05;;;0.40;99.90;;;;;;15125868;23;20485;-36
2023/02/07 17:14:52;;;;;;;17.70;9.48;;;0.30;99.90;;;;;;15126380;23;20682;-36
2023/02/07 17:20:54;;;;;;;15.43;8.43;;;0.10;99.90;;;;;;15124029;23;20120;-36
2023/02/07 17:26:57;;;;;;;14.93;8.65;;;-0.10;99.90;;;;;;15100513;23;20128;-36
2023/02/07 17:32:59;;;;;;;15.73;9.52;;;-0.20;99.90;;;;;;15125988;23;20451;-36
2023/02/07 17:39:02;;;;;;;13.43;7.68;;;-0.20;99.90;;;;;;15130218;23;20345;-36
2023/02/07 17:45:04;;;;;;;12.68;7.63;;;-0.40;99.90;;;;;;15125588;23;20034;-36
2023/02/07 17:51:06;;;;;;;15.23;8.60;;;-0.40;99.90;;;;;;15125866;23;20062;-36
2023/02/07 17:57:12;;;;;;;16.48;9.45;;;-0.40;99.90;;;;;;15128691;23;20033;-36
2023/02/07 18:03:14;;;;;;;15.48;9.05;;;-0.30;99.90;;;;;;15129327;23;20027;-36
2023/02/07 18:09:18;;;;;;;19.33;10.20;;;-0.30;99.90;;;;;;15127541;23;20070;-36
2023/02/07 18:15:20;;;;;;;22.10;12.82;;;-0.40;99.90;;;;;;15122335;23;20117;-36
2023/02/07 18:21:23;;;;;;;16.15;9.52;;;-0.40;99.90;;;;;;15128577;23;20507;-36
2023/02/07 18:27:25;;;;;;;16.88;9.98;;;-0.50;99.90;;;;;;15122332;23;20028;-36
2023/02/07 18:33:27;;;;;;;17.35;9.43;;;-0.60;99.90;;;;;;15124264;23;20522;-35
2023/02/07 18:39:29;;;;;;;15.98;9.25;;;-0.60;99.90;;;;;;15127793;23;20380;-36
2023/02/07 18:45:32;;;;;;;18.40;9.98;;;-0.60;99.90;;;;;;15117542;23;20738;-36
2023/02/07 18:51:36;;;;;;;14.82;8.55;;;-0.70;99.90;;;;;;15126070;23;20097;-36
2023/02/07 18:57:38;;;;;;;14.17;8.37;;;-0.70;99.90;;;;;;15123730;23;20351;-36
2023/02/07 19:03:39;;;;;;;17.92;9.05;;;-0.70;99.90;;;;;;15101816;23;20085;-36
2023/02/07 19:09:42;;;;;;;16.95;9.60;;;-0.70;99.90;;;;;;15125007;23;20093;-36
2023/02/07 19:15:43;;;;;;;18.02;10.02;;;-0.80;99.90;;;;;;15121851;23;20026;-36
2023/02/07 19:21:45;;;;;;;17.80;10.85;;;-0.80;99.90;;;;;;15126834;23;20058;-36
2023/02/07 19:27:47;;;;;;;17.77;9.85;;;-0.70;99.90;;;;;;15131946;23;20054;-36
2023/02/07 19:33:49;;;;;;;17.73;9.60;;;-0.60;99.90;;;;;;15126155;23;20361;-36
2023/02/07 19:39:54;;;;;;;17.00;10.05;;;-0.70;99.90;;;;;;15130421;23;20101;-36
2023/02/07 19:45:56;;;;;;;16.70;8.88;;;-0.70;99.90;;;;;;15128129;23;20670;-36
2023/02/07 19:51:58;;;;;;;15.13;9.20;;;-0.80;99.90;;;;;;15126618;23;20065;-37
2023/02/07 19:58:00;;;;;;;16.48;9.77;;;-0.80;99.90;;;;;;15132267;23;20448;-36
2023/02/07 20:04:02;;;;;;;15.27;9.25;;;-0.80;99.90;;;;;;15127111;23;20367;-36
2023/02/07 20:10:05;;;;;;;15.32;8.68;;;-0.80;99.90;;;;;;15103309;23;20101;-36
2023/02/07 20:16:09;;;;;;;17.75;10.00;;;-0.90;99.90;;;;;;15087522;23;20474;-36
2023/02/07 20:22:11;;;;;;;;;;;-1.00;99.90;;;;;;15128166;23;20073;-36
2023/02/07 20:28:13;;;;;;;17.08;9.50;;;-0.90;99.90;;;;;;15128670;23;19992;-36
2023/02/07 20:34:15;;;;;;;19.90;10.82;;;-0.90;99.90;;;;;;15128030;23;20026;-36
2023/02/07 20:40:18;;;;;;;19.83;10.38;;;-0.90;99.90;;;;;;15128688;23;20018;-36
2023/02/07 20:46:19;;;;;;;20.75;11.00;;;-1.00;99.90;;;;;;15121606;23;20105;-36
2023/02/07 20:52:21;;;;;;;18.40;10.00;;;-1.00;99.90;;;;;;15100778;23;20467;-36
2023/02/07 20:58:23;;;;;;;18.25;9.88;;;-1.10;99.90;;;;;;15131761;23;20470;-36
2023/02/07 21:04:26;;;;;;;15.60;8.90;;;-1.10;99.90;;;;;;15127338;23;20036;-36
2023/02/07 21:10:28;;;;;;;16.48;9.25;;;-1.10;99.90;;;;;;15127869;23;20154;-36
2023/02/07 21:16:30;;;;;;;16.95;9.02;;;-1.10;99.90;;;;;;15124682;23;20054;-36
2023/02/07 21:22:32;;;;;;;18.60;9.52;;;-1.10;99.90;;;;;;15127969;23;20456;-36
2023/02/07 21:28:35;;;;;;;19.65;9.98;;;-1.10;99.90;;;;;;15095506;23;20026;-35
2023/02/07 21:34:37;;;;;;;14.32;8.52;;;-1.20;99.90;;;;;;15129585;23;20053;-36
2023/02/07 21:40:38;;;;;;;15.30;8.85;;;-1.30;99.90;;;;;;15101924;23;20146;-36
2023/02/07 21:46:44;;;;;;;17.65;8.98;;;-1.20;99.90;;;;;;15129105;23;20439;-36
2023/02/07 21:52:46;;;;;;;18.23;10.02;;;-1.20;99.90;;;;;;15122524;23;20022;-36
2023/02/07 21:58:54;;;;;;;16.55;9.20;;;-1.30;99.90;;;;;;15127367;23;20097;-36
2023/02/07 22:04:56;;;;;;;15.75;9.55;;;-1.30;99.90;;;;;;15125817;23;20110;-37
2023/02/07 22:11:02;;;;;;;17.00;8.85;;;-1.10;99.90;;;;;;15124711;23;20149;-36
2023/02/07 22:17:04;;;;;;;14.48;8.77;;;-1.10;99.90;;;;;;15098550;23;20033;-36
2023/02/07 22:23:06;;;;;;;15.13;8.98;;;-1.20;99.90;;;;;;15122412;23;20019;-36
2023/02/07 22:29:08;;;;;;;19.35;9.75;;;-1.20;99.90;;;;;;15123810;23;20022;-35
2023/02/07 22:35:10;;;;;;;17.80;9.05;;;-1.40;99.90;;;;;;15098523;23;20026;-36
2023/02/07 22:41:12;;;;;;;22.52;9.88;;;-1.40;99.90;;;;;;15124148;23;20024;-35
2023/02/07 22:47:14;;;;;;;19.52;9.30;;;-1.40;99.90;;;;;;15124534;23;20093;-35
2023/02/07 22:53:16;;;;;;;16.70;9.52;;;-1.40;99.90;;;;;;15125992;23;20019;-36
2023/02/07 22:59:18;;;;;;;16.77;9.35;;;-1.40;99.90;;;;;;15127021;23;20018;-36
2023/02/07 23:05:20;;;;;;;17.58;9.43;;;-1.40;99.90;;;;;;15127811;23;20058;-36
2023/02/07 23:11:22;;;;;;;19.42;10.35;;;-1.40;99.90;;;;;;15127974;23;20097;-36
2023/02/07 23:17:25;;;;;;;15.15;8.85;;;-1.50;99.90;;;;;;15126240;23;20447;-36
2023/02/07 23:23:27;;;;;;;16.42;9.02;;;-1.50;99.90;;;;;;15120839;23;20467;-36
2023/02/07 23:29:29;;;;;;;16.85;8.60;;;-1.60;99.90;;;;;;15127549;23;20433;-36
2023/02/07 23:35:32;;;;;;;14.60;8.35;;;-1.70;99.90;;;;;;15122335;23;20089;-36
2023/02/07 23:41:34;;;;;;;17.85;10.05;;;-1.70;99.90;;;;;;15125250;23;20151;-36
2023/02/07 23:47:36;;;;;;;15.95;9.68;;;-1.70;99.90;;;;;;15119796;23;20077;-36
2023/02/07 23:53:38;;;;;;;16.00;8.60;;;-1.80;99.90;;;;;;15096050;23;20391;-35
2023/02/07 23:59:40;;;;;;;16.50;9.63;;;-1.80;99.90;;;;;;15124180;23;20333;-35
